Flight Track Log - Related Links

Times and Time Zones

All times are in EDT time to prevent confusion due to time zone crossing. See the ABX102 flight status page for this flight to view local times or setup timezone preferences in your user account.

Time Position Orientation Groundspeed Altitude Reporting Facility
EDT Latitude Longitude Course Direction KTS MPH feet Rate Location/Type
Sat 12:34:43 AM 32.9167 -97.0500 360° North 146 168 1,300  Level Dallas / Fort Worth TRACON
Sat 12:35:43 AM 32.9667 -97.0500 360° North 193 222 2,500 1,600 Climbing Dallas / Fort Worth TRACON
Sat 12:36:43 AM 33.0000 -97.0167 40° Northeast 231 266 4,500 2,246 Climbing Dallas / Fort Worth TRACON
Sat 12:38:42 AM 33.0242 -96.8411 81° East 281 323 9,200 2,145 Climbing Fort Worth Center
Sat 12:39:42 AM 33.0361 -96.7567 80° East 275 316 10,900 1,700 Climbing Fort Worth Center
Sat 12:40:42 AM 33.0503 -96.6353 82° East 318 366 12,600 1,650 Climbing Fort Worth Center
Sat 12:41:42 AM 33.0661 -96.5036 82° East 374 430 14,200 1,800 Climbing Fort Worth Center
Sat 12:42:42 AM 33.0817 -96.3697 82° East 398 458 16,200 2,250 Climbing Fort Worth Center
Sat 12:43:42 AM 33.1158 -96.2353 73° East 410 472 18,700 2,150 Climbing Fort Worth Center
Sat 12:44:42 AM 33.1544 -96.1058 70° East 416 479 20,500 1,700 Climbing Fort Worth Center
Sat 12:45:42 AM 33.1989 -95.9836 66° East 434 499 22,100 1,550 Climbing Fort Worth Center
Sat 12:46:42 AM 33.2536 -95.8486 64° Northeast 444 511 23,600 1,450 Climbing Fort Worth Center
Sat 12:47:42 AM 33.3083 -95.7108 65° Northeast 449 517 25,000 1,350 Climbing Fort Worth Center
Sat 12:48:42 AM 33.3708 -95.5528 65° Northeast 455 524 26,300 1,200 Climbing Fort Worth Center
Sat 12:49:42 AM 33.4289 -95.4047 65° Northeast 469 540 27,400 1,400 Climbing Fort Worth Center
Sat 12:50:42 AM 33.4911 -95.2514 64° Northeast 488 562 29,100 1,650 Climbing Fort Worth Center
Sat 12:51:42 AM 33.5533 -95.1053 63° Northeast 488 562 30,700 1,550 Climbing Fort Worth Center
Sat 12:52:42 AM 33.6131 -94.9567 64° Northeast 488 562 32,200 1,500 Climbing Fort Worth Center
Sat 12:53:42 AM 33.6728 -94.8078 64° Northeast 488 562 33,700 1,400 Climbing Fort Worth Center
Sat 12:54:42 AM 33.7300 -94.6611 65° Northeast 488 562 35,000 1,184 Climbing Fort Worth Center
Sat 12:56:14 AM 33.8158 -94.4475 64° Northeast 499 574 36,700 789 Climbing Memphis Center
Sat 12:57:14 AM 33.8747 -94.2950 65° Northeast 504 580 37,000 150 Climbing Memphis Center
Sat 12:58:14 AM 33.9361 -94.1400 64° Northeast 499 574 37,000  Level Memphis Center
Sat 12:59:14 AM 33.9947 -93.9897 65° Northeast 499 574 37,000  Level Memphis Center
Sat 01:00:14 AM 34.0533 -93.8394 65° Northeast 499 574 37,000  Level Memphis Center
Sat 01:01:14 AM 34.1117 -93.6864 65° Northeast 499 574 37,000  Level Memphis Center
Sat 01:02:14 AM 34.1744 -93.5206 65° Northeast 499 574 37,000  Level Memphis Center
Sat 01:03:14 AM 34.2347 -93.3669 65° Northeast 499 574 37,000  Level Memphis Center
Sat 01:04:14 AM 34.2925 -93.2106 66° East 499 574 37,000  Level Memphis Center
Sat 01:05:14 AM 34.3461 -93.0564 67° East 499 574 37,000  Level Memphis Center
Sat 01:06:14 AM 34.4056 -92.9047 65° Northeast 499 574 37,000  Level Memphis Center
Sat 01:07:14 AM 34.4628 -92.7553 65° Northeast 499 574 37,000  Level Memphis Center
Sat 01:08:14 AM 34.5200 -92.5981 66° East 499 574 37,000  Level Memphis Center
Sat 01:09:14 AM 34.5769 -92.4381 67° East 504 580 37,000  Level Memphis Center
Sat 01:10:14 AM 34.6378 -92.2806 65° Northeast 504 580 37,000  Level Memphis Center
Sat 01:11:14 AM 34.7111 -92.1331 59° Northeast 504 580 37,000  Level Memphis Center
Sat 01:12:14 AM 34.8044 -92.0111 47° Northeast 496 571 37,000  Level Memphis Center
Sat 01:13:14 AM 34.9042 -91.8867 46° Northeast 501 577 37,000  Level Memphis Center
Sat 01:14:14 AM 34.9994 -91.7642 46° Northeast 501 577 37,000  Level Memphis Center
Sat 01:15:14 AM 35.0967 -91.6386 47° Northeast 501 577 37,000  Level Memphis Center
Sat 01:16:14 AM 35.1919 -91.5156 47° Northeast 501 577 37,000  Level Memphis Center
Sat 01:17:14 AM 35.2911 -91.3872 47° Northeast 501 577 37,000  Level Memphis Center
Sat 01:18:14 AM 35.3858 -91.2611 47° Northeast 501 577 37,000  Level Memphis Center
Sat 01:19:14 AM 35.4617 -91.1397 52° Northeast 501 577 37,000  Level Memphis Center
Sat 01:20:14 AM 35.5522 -90.9872 54° Northeast 496 571 37,000  Level Memphis Center
Sat 01:21:14 AM 35.6406 -90.8500 52° Northeast 501 577 37,000  Level Memphis Center
Sat 01:22:14 AM 35.7181 -90.7125 55° Northeast 500 575 37,000  Level Memphis Center
Sat 01:23:14 AM 35.8039 -90.5719 53° Northeast 500 575 37,000  Level Memphis Center
Sat 01:24:14 AM 35.8875 -90.4339 53° Northeast 500 575 37,000  Level Memphis Center
Sat 01:25:14 AM 35.9731 -90.2903 54° Northeast 505 581 37,000  Level Memphis Center
Sat 01:26:14 AM 36.0606 -90.1489 53° Northeast 505 581 37,000  Level Memphis Center
Sat 01:27:14 AM 36.1478 -90.0075 53° Northeast 505 581 37,000  Level Memphis Center
Sat 01:28:14 AM 36.2328 -89.8656 53° Northeast 511 588 37,000  Level Memphis Center
Sat 01:29:14 AM 36.3153 -89.7258 54° Northeast 511 588 37,000  Level Memphis Center
Sat 01:30:14 AM 36.4042 -89.5808 53° Northeast 511 588 37,000  Level Memphis Center
Sat 01:31:14 AM 36.4908 -89.4328 54° Northeast 511 588 37,000  Level Memphis Center
Sat 01:32:14 AM 36.5731 -89.3003 52° Northeast 525 604 37,000  Level Memphis Center
Sat 01:33:14 AM 36.6550 -89.1517 55° Northeast 525 604 37,000  Level Memphis Center
Sat 01:34:14 AM 36.7392 -89.0081 54° Northeast 520 598 37,000  Level Memphis Center
Sat 01:35:14 AM 36.8228 -88.8642 54° Northeast 520 598 37,000  Level Memphis Center
Sat 01:36:14 AM 36.9086 -88.7172 54° Northeast 520 598 37,000  Level Memphis Center
Sat 01:37:14 AM 36.9939 -88.5725 54° Northeast 520 598 37,000  Level Memphis Center
Sat 01:38:14 AM 37.0794 -88.4275 53° Northeast 520 598 37,000  Level Memphis Center
Sat 01:39:14 AM 37.1603 -88.2800 55° Northeast 520 598 37,000  Level Memphis Center
Sat 01:40:14 AM 37.2453 -88.1344 54° Northeast 520 598 37,000  Level Memphis Center
Sat 01:42:41 AM 37.4489 -87.7633 55° Northeast 519 597 37,000  Level Indianapolis Center
Sat 01:43:41 AM 37.5319 -87.6144 55° Northeast 516 594 37,000  Level Indianapolis Center
Sat 01:44:41 AM 37.6150 -87.4644 55° Northeast 515 593 37,000  Level Indianapolis Center
Sat 01:45:42 AM 37.6969 -87.3153 55° Northeast 512 589 37,000  Level Indianapolis Center
Sat 01:46:42 AM 37.7667 -87.1861 56° Northeast 511 588 37,000  Level Indianapolis Center
Sat 01:47:42 AM 37.8475 -87.0375 55° Northeast 514 592 37,000  Level Indianapolis Center
Sat 01:48:43 AM 37.9436 -86.8586 56° Northeast 516 594 37,000  Level Indianapolis Center
Sat 01:49:43 AM 38.0247 -86.7092 55° Northeast 518 596 37,000 -149 Level Indianapolis Center
Sat 01:50:44 AM 38.1050 -86.5575 56° Northeast 521 600 36,700 -1,636 Descending Indianapolis Center
Sat 01:51:44 AM 38.1878 -86.4047 55° Northeast 526 605 33,700 -3,300 Descending Indianapolis Center
Sat 01:52:44 AM 38.2731 -86.2506 55° Northeast 533 613 30,100 -2,950 Descending Indianapolis Center
Sat 01:53:44 AM 38.3653 -86.1053 51° Northeast 529 609 27,800 -2,231 Descending Indianapolis Center
Sat 01:54:45 AM 38.4553 -85.9597 52° Northeast 524 603 25,600 -2,479 Descending Indianapolis Center
Sat 01:55:45 AM 38.5392 -85.8228 52° Northeast 494 568 22,800 -3,050 Descending Indianapolis Center
Sat 01:56:45 AM 38.6186 -85.6883 53° Northeast 477 549 19,500 -3,074 Descending Indianapolis Center
Sat 01:57:46 AM 38.6875 -85.5736 52° Northeast 466 536 16,600 -2,826 Descending Indianapolis Center
Sat 01:58:46 AM 38.7550 -85.4469 56° Northeast 439 505 13,800 -2,100 Descending Indianapolis Center
Sat 01:59:46 AM 38.7969 -85.3056 69° East 426 490 12,400 -1,388 Descending Indianapolis Center
Sat 02:00:47 AM 38.8339 -85.1692 71° East 410 472 11,000 -744 Descending Indianapolis Center
Sat 02:01:47 AM 38.8742 -85.0150 71° East 383 441 10,900 -300 Descending Indianapolis Center
Sat 02:02:47 AM 38.9050 -84.9081 70° East 329 379 10,400 -1,041 Descending Indianapolis Center
Sat 02:03:48 AM 38.9308 -84.8078 72° East 308 354 8,800 -1,736 Descending Indianapolis Center
Sat 02:04:48 AM 38.9578 -84.7061 71° East 302 348 6,900 -2,100 Descending Indianapolis Center
Sat 02:05:48 AM 38.9739 -84.6036 79° East 292 336 4,600 -1,785 Descending Indianapolis Center
Sat 02:06:49 AM 38.9886 -84.5083 79° East 282 325 3,300 -893 Descending Indianapolis Center
Sat 02:07:49 AM 39.0439 -84.5011 North 276 318 2,800 -576 Descending Indianapolis Center
Sat 02:09:46 AM 39.0500 -84.6167 274° West 131 151 1,600 -615 Descending Cincinnati TRACON

Login

Don't have an account? Register now (free) for customized features, flight alerts, and more!